Time;durP1;ratioP1;P1;durP2;ratioP2;P2;SDS_P1;SDS_P2;PMS_P1;PMS_P2;Temp;Humidity;BMP_temperature;BMP_pressure;BME280_temperature;BME280_humidity;BME280_pressure;Samples;Min_cycle;Max_cycle;Signal;HPM_P1;HPM_P2
2021/06/25 00:00:08;;;;;;;;;;;21.60;52.80;;;;;;1487285;40;20164;-66
2021/06/25 00:01:29;;;;;;;;;;;21.50;52.70;;;;;;1486634;40;19940;-66
2021/06/25 00:02:50;;;;;;;;;;;21.50;52.80;;;;;;1486537;40;19948;-67
2021/06/25 00:04:10;;;;;;;;;;;21.50;52.80;;;;;;1485837;40;19932;-67
2021/06/25 00:05:31;;;;;;;;;;;21.50;52.80;;;;;;1481939;40;19937;-66
2021/06/25 00:06:52;;;;;;;;;;;21.50;52.80;;;;;;1486539;40;20350;-66
2021/06/25 00:08:13;;;;;;;;;;;21.50;52.80;;;;;;1487644;40;19936;-67
2021/06/25 00:09:34;;;;;;;;;;;21.40;52.80;;;;;;1488118;39;19980;-66
2021/06/25 00:10:54;;;;;;;;;;;21.40;52.80;;;;;;1487174;39;19940;-66
2021/06/25 00:12:15;;;;;;;;;;;21.40;52.90;;;;;;1487078;40;19932;-66
2021/06/25 00:13:36;;;;;;;;;;;21.40;52.90;;;;;;1486410;40;19940;-66
2021/06/25 00:14:57;;;;;;;;;;;21.40;52.90;;;;;;1487348;39;20257;-67
2021/06/25 00:16:18;;;;;;;;;;;21.30;52.90;;;;;;1488557;39;19940;-67
2021/06/25 00:17:39;;;;;;;;;;;21.30;52.90;;;;;;1487531;40;20334;-66
2021/06/25 00:19:00;;;;;;;;;;;21.30;52.90;;;;;;1481928;40;20471;-66
2021/06/25 00:20:21;;;;;;;;;;;21.30;53.00;;;;;;1484828;40;19936;-66
2021/06/25 00:21:42;;;;;;;;;;;21.30;53.00;;;;;;1486202;40;19940;-67
2021/06/25 00:23:03;;;;;;;;;;;21.30;53.00;;;;;;1486706;40;20377;-66
2021/06/25 00:24:23;;;;;;;;;;;21.20;52.90;;;;;;1486161;39;19944;-67
2021/06/25 00:25:44;;;;;;;;;;;21.20;53.00;;;;;;1486502;39;20032;-67
2021/06/25 00:27:05;;;;;;;;;;;21.20;53.00;;;;;;1488721;40;19946;-66
2021/06/25 00:28:26;;;;;;;;;;;21.20;53.20;;;;;;1486717;40;20270;-67
2021/06/25 00:29:47;;;;;;;;;;;21.20;53.30;;;;;;1486481;40;19936;-66
2021/06/25 00:31:08;;;;;;;;;;;21.20;53.30;;;;;;1488847;40;20271;-66
2021/06/25 00:32:29;;;;;;;;;;;21.20;53.30;;;;;;1486508;40;19942;-66
2021/06/25 00:33:49;;;;;;;;;;;21.20;53.40;;;;;;1483583;40;20017;-67
2021/06/25 00:35:10;;;;;;;;;;;21.10;53.40;;;;;;1485440;40;20033;-66
2021/06/25 00:36:31;;;;;;;;;;;21.10;53.50;;;;;;1487668;40;19932;-66
2021/06/25 00:37:52;;;;;;;;;;;21.10;53.60;;;;;;1487812;40;19948;-67
2021/06/25 00:39:13;;;;;;;;;;;21.10;53.50;;;;;;1486813;40;19976;-66
2021/06/25 00:40:34;;;;;;;;;;;21.10;53.50;;;;;;1486307;40;20033;-66
2021/06/25 00:41:55;;;;;;;;;;;21.10;53.40;;;;;;1486941;40;19944;-66
2021/06/25 00:43:16;;;;;;;;;;;21.10;53.50;;;;;;1486347;40;19955;-67
2021/06/25 00:44:39;;;;;;;;;;;21.10;53.60;;;;;;1488157;40;20029;-66
2021/06/25 00:46:00;;;;;;;;;;;21.00;53.80;;;;;;1487274;39;20312;-67
2021/06/25 00:47:21;;;;;;;;;;;21.00;54.00;;;;;;1486621;39;19943;-67
2021/06/25 00:48:42;;;;;;;;;;;21.00;53.60;;;;;;1486207;39;20037;-67
2021/06/25 00:50:04;;;;;;;;;;;21.00;53.50;;;;;;1486404;40;19950;-66
2021/06/25 00:51:24;;;;;;;;;;;21.00;53.70;;;;;;1486260;40;19932;-66
2021/06/25 00:52:48;;;;;;;;;;;21.00;53.80;;;;;;1485916;40;19955;-66
2021/06/25 00:54:10;;;;;;;;;;;21.00;53.80;;;;;;1485907;40;19944;-66
2021/06/25 00:55:42;;;;;;;;;;;21.00;53.80;;;;;;1485630;40;20017;-66
2021/06/25 00:57:03;;;;;;;;;;;20.90;53.80;;;;;;1486148;40;19938;-66
2021/06/25 00:58:24;;;;;;;;;;;20.90;53.70;;;;;;1486779;40;19936;-66
2021/06/25 00:59:45;;;;;;;;;;;20.90;53.70;;;;;;1485781;40;19983;-66
2021/06/25 01:01:06;;;;;;;;;;;20.90;53.70;;;;;;1487050;40;20191;-66
2021/06/25 01:02:27;;;;;;;;;;;20.90;53.80;;;;;;1485813;39;19932;-66
2021/06/25 01:03:47;;;;;;;;;;;20.90;53.70;;;;;;1482241;40;20235;-66
2021/06/25 01:05:09;;;;;;;;;;;20.80;53.60;;;;;;1486415;39;20227;-66
2021/06/25 01:06:30;;;;;;;;;;;20.80;53.60;;;;;;1487042;39;19943;-66
2021/06/25 01:07:50;;;;;;;;;;;20.80;53.70;;;;;;1488019;39;19968;-66
2021/06/25 01:09:11;;;;;;;;;;;20.80;53.80;;;;;;1487135;40;19931;-66
2021/06/25 01:10:36;;;;;;;;;;;20.80;53.70;;;;;;1486105;40;19932;-66
2021/06/25 01:11:57;;;;;;;;;;;20.80;53.80;;;;;;1486035;40;19959;-67
2021/06/25 01:13:18;;;;;;;;;;;20.80;53.80;;;;;;1486587;40;19936;-67
2021/06/25 01:14:39;;;;;;;;;;;20.70;53.70;;;;;;1487736;40;19952;-67
2021/06/25 01:16:00;;;;;;;;;;;20.70;53.90;;;;;;1481359;40;19948;-66
2021/06/25 01:17:28;;;;;;;;;;;20.70;53.90;;;;;;1484629;40;20275;-66
2021/06/25 01:18:49;;;;;;;;;;;20.70;53.90;;;;;;1487037;40;20022;-67
2021/06/25 01:20:24;;;;;;;;;;;20.70;53.90;;;;;;1486013;40;19940;-67
2021/06/25 01:21:45;;;;;;;;;;;20.60;53.80;;;;;;1486070;40;19932;-66
2021/06/25 01:23:06;;;;;;;;;;;20.60;53.80;;;;;;1488230;40;19936;-67
2021/06/25 01:24:26;;;;;;;;;;;20.60;53.80;;;;;;1486558;40;20190;-67
2021/06/25 01:25:47;;;;;;;;;;;20.60;53.70;;;;;;1486128;39;20375;-66
2021/06/25 01:27:08;;;;;;;;;;;20.60;53.70;;;;;;1488548;39;19943;-67
2021/06/25 01:28:29;;;;;;;;;;;20.50;53.70;;;;;;1487348;39;19936;-66
2021/06/25 01:29:50;;;;;;;;;;;20.50;53.80;;;;;;1485948;39;20235;-66
2021/06/25 01:31:10;;;;;;;;;;;20.50;53.80;;;;;;1481497;40;19943;-67
2021/06/25 01:32:31;;;;;;;;;;;20.50;53.70;;;;;;1484802;40;20021;-66
2021/06/25 01:33:53;;;;;;;;;;;20.50;53.70;;;;;;1486208;39;19932;-66
2021/06/25 01:35:14;;;;;;;;;;;20.40;53.60;;;;;;1487193;39;19932;-66
2021/06/25 01:36:36;;;;;;;;;;;20.40;53.70;;;;;;1487458;40;20259;-66
2021/06/25 01:37:58;;;;;;;;;;;20.40;53.70;;;;;;1487137;40;19960;-67
2021/06/25 01:39:18;;;;;;;;;;;20.40;53.60;;;;;;1486228;40;19939;-66
2021/06/25 01:40:40;;;;;;;;;;;20.40;53.60;;;;;;1486464;40;20003;-67
2021/06/25 01:42:01;;;;;;;;;;;20.40;53.60;;;;;;1487182;40;20200;-67
2021/06/25 01:43:24;;;;;;;;;;;20.40;53.60;;;;;;1486244;40;19944;-67
2021/06/25 01:44:50;;;;;;;;;;;20.30;53.60;;;;;;1487641;40;19936;-66
2021/06/25 01:46:12;;;;;;;;;;;20.30;53.60;;;;;;1487466;40;19943;-66
2021/06/25 01:47:34;;;;;;;;;;;20.30;53.50;;;;;;1486181;40;20307;-67
2021/06/25 01:48:55;;;;;;;;;;;20.20;53.50;;;;;;1487601;40;19936;-66
2021/06/25 01:50:20;;;;;;;;;;;20.20;53.50;;;;;;1487138;40;19947;-66
2021/06/25 01:51:46;;;;;;;;;;;20.20;53.50;;;;;;1485734;40;19948;-66
2021/06/25 01:53:07;;;;;;;;;;;20.20;53.50;;;;;;1486633;39;19935;-66
2021/06/25 01:54:28;;;;;;;;;;;20.20;53.50;;;;;;1485555;40;20251;-67
2021/06/25 01:55:50;;;;;;;;;;;20.10;53.50;;;;;;1486673;39;19980;-67
2021/06/25 01:57:11;;;;;;;;;;;20.10;53.50;;;;;;1485877;40;19936;-67
2021/06/25 01:58:32;;;;;;;;;;;20.10;53.40;;;;;;1485568;40;20264;-66
2021/06/25 01:59:53;;;;;;;;;;;20.10;53.50;;;;;;1485070;40;19943;-67
2021/06/25 02:01:15;;;;;;;;;;;20.10;53.50;;;;;;1485570;40;19941;-67
2021/06/25 02:02:36;;;;;;;;;;;20.10;53.40;;;;;;1485986;40;20028;-67
2021/06/25 02:03:58;;;;;;;;;;;20.00;53.40;;;;;;1486749;40;20279;-67
2021/06/25 02:05:19;;;;;;;;;;;20.00;53.40;;;;;;1485232;40;19932;-66
2021/06/25 02:06:40;;;;;;;;;;;20.00;53.90;;;;;;1487424;39;19948;-66
2021/06/25 02:08:01;;;;;;;;;;;20.00;53.40;;;;;;1485744;40;19948;-67
2021/06/25 02:09:22;;;;;;;;;;;20.00;53.40;;;;;;1485385;40;19932;-67
2021/06/25 02:10:43;;;;;;;;;;;20.00;53.40;;;;;;1486573;40;19952;-67
2021/06/25 02:12:04;;;;;;;;;;;19.90;53.40;;;;;;1486603;40;19943;-67
2021/06/25 02:13:25;;;;;;;;;;;19.90;53.40;;;;;;1485736;40;19932;-66
2021/06/25 02:14:45;;;;;;;;;;;19.90;53.40;;;;;;1486030;39;20168;-66
2021/06/25 02:16:06;;;;;;;;;;;19.90;53.40;;;;;;1487396;39;20385;-66
2021/06/25 02:17:27;;;;;;;;;;;19.90;53.40;;;;;;1486579;40;20611;-67
2021/06/25 02:18:48;;;;;;;;;;;19.90;53.50;;;;;;1482274;40;19944;-66
2021/06/25 02:20:09;;;;;;;;;;;19.80;53.40;;;;;;1484415;39;19936;-66
2021/06/25 02:21:30;;;;;;;;;;;19.80;53.70;;;;;;1486552;39;19940;-67
2021/06/25 02:22:51;;;;;;;;;;;19.80;53.40;;;;;;1486122;40;19936;-67
2021/06/25 02:24:12;;;;;;;;;;;19.80;53.40;;;;;;1486523;40;19990;-67
2021/06/25 02:25:32;;;;;;;;;;;19.80;53.40;;;;;;1485130;40;19932;-66
2021/06/25 02:26:53;;;;;;;;;;;19.80;53.40;;;;;;1487579;40;19932;-67
2021/06/25 02:28:14;;;;;;;;;;;19.70;53.30;;;;;;1486188;40;19932;-66
2021/06/25 02:29:35;;;;;;;;;;;19.70;53.40;;;;;;1487511;40;19936;-65
2021/06/25 02:30:56;;;;;;;;;;;19.70;53.40;;;;;;1487243;39;19943;-67
2021/06/25 02:32:17;;;;;;;;;;;19.70;53.30;;;;;;1485562;40;19942;-67
2021/06/25 02:33:37;;;;;;;;;;;19.70;53.40;;;;;;1485564;40;19940;-67
2021/06/25 02:34:58;;;;;;;;;;;19.60;53.40;;;;;;1486395;39;20045;-66
2021/06/25 02:36:19;;;;;;;;;;;19.60;53.40;;;;;;1486887;40;19932;-67
2021/06/25 02:37:40;;;;;;;;;;;19.60;53.40;;;;;;1486127;39;19942;-67
2021/06/25 02:39:01;;;;;;;;;;;19.60;53.40;;;;;;1488239;39;19938;-67
2021/06/25 02:40:23;;;;;;;;;;;19.60;53.40;;;;;;1484923;39;20205;-67
2021/06/25 02:41:43;;;;;;;;;;;19.50;53.40;;;;;;1486510;39;20020;-67
2021/06/25 02:43:04;;;;;;;;;;;19.50;53.40;;;;;;1487955;40;20215;-66
2021/06/25 02:44:25;;;;;;;;;;;19.50;53.40;;;;;;1483003;40;19936;-67
2021/06/25 02:45:46;;;;;;;;;;;19.50;53.50;;;;;;1483541;40;19956;-66
2021/06/25 02:47:07;;;;;;;;;;;19.50;53.50;;;;;;1486418;40;19936;-66
2021/06/25 02:48:28;;;;;;;;;;;19.50;53.40;;;;;;1486603;40;20242;-67
2021/06/25 02:49:49;;;;;;;;;;;19.40;53.40;;;;;;1484956;40;20442;-67
2021/06/25 02:51:09;;;;;;;;;;;19.40;53.50;;;;;;1487566;40;19938;-67
2021/06/25 02:52:30;;;;;;;;;;;19.40;53.50;;;;;;1486170;40;20183;-67
2021/06/25 02:53:51;;;;;;;;;;;19.40;53.50;;;;;;1486145;40;19932;-67
2021/06/25 02:55:12;;;;;;;;;;;19.40;53.50;;;;;;1484792;40;19972;-66
2021/06/25 02:56:33;;;;;;;;;;;19.40;53.50;;;;;;1485611;39;19940;-66
2021/06/25 02:57:54;;;;;;;;;;;19.40;53.50;;;;;;1484702;39;19972;-67
2021/06/25 02:59:14;;;;;;;;;;;19.30;53.50;;;;;;1487089;40;19943;-67
2021/06/25 03:00:35;;;;;;;;;;;19.40;53.60;;;;;;1487426;40;19951;-67
2021/06/25 03:01:56;;;;;;;;;;;19.30;53.50;;;;;;1486810;40;20071;-67
2021/06/25 03:03:17;;;;;;;;;;;19.30;53.60;;;;;;1486371;40;19932;-67
2021/06/25 03:04:38;;;;;;;;;;;19.30;53.70;;;;;;1481156;40;19955;-67
2021/06/25 03:05:59;;;;;;;;;;;19.30;53.70;;;;;;1480672;40;20084;-67
2021/06/25 03:07:20;;;;;;;;;;;19.30;53.70;;;;;;1484495;40;20428;-66
2021/06/25 03:08:40;;;;;;;;;;;19.20;53.60;;;;;;1486180;40;20014;-67
2021/06/25 03:10:02;;;;;;;;;;;19.20;53.70;;;;;;1486839;40;19940;-67
2021/06/25 03:11:22;;;;;;;;;;;19.20;53.70;;;;;;1484587;40;20283;-67
2021/06/25 03:12:43;;;;;;;;;;;19.20;53.80;;;;;;1485812;40;20671;-66
2021/06/25 03:14:04;;;;;;;;;;;19.20;53.70;;;;;;1487969;40;19940;-66
2021/06/25 03:15:25;;;;;;;;;;;19.20;53.80;;;;;;1485495;40;19932;-67
2021/06/25 03:16:46;;;;;;;;;;;19.10;53.80;;;;;;1486075;40;19932;-66
2021/06/25 03:18:06;;;;;;;;;;;19.10;53.80;;;;;;1486705;40;19932;-67
2021/06/25 03:19:27;;;;;;;;;;;19.10;53.80;;;;;;1486483;39;20004;-67
2021/06/25 03:20:48;;;;;;;;;;;19.10;53.80;;;;;;1486249;40;19936;-66
2021/06/25 03:22:09;;;;;;;;;;;19.10;53.80;;;;;;1485133;40;19932;-66
2021/06/25 03:23:30;;;;;;;;;;;19.00;53.70;;;;;;1485708;40;20288;-67
2021/06/25 03:24:51;;;;;;;;;;;19.00;53.70;;;;;;1486036;40;20260;-67
2021/06/25 03:26:11;;;;;;;;;;;19.00;53.80;;;;;;1485271;40;19939;-67
2021/06/25 03:27:32;;;;;;;;;;;19.00;53.80;;;;;;1487299;40;20285;-67
2021/06/25 03:28:53;;;;;;;;;;;19.00;53.90;;;;;;1486456;40;19940;-67
2021/06/25 03:30:14;;;;;;;;;;;19.00;53.90;;;;;;1486154;40;20241;-66
2021/06/25 03:31:35;;;;;;;;;;;18.90;53.80;;;;;;1486763;40;20300;-67
2021/06/25 03:32:56;;;;;;;;;;;18.90;53.90;;;;;;1486010;40;19964;-67
2021/06/25 03:34:16;;;;;;;;;;;18.90;53.90;;;;;;1485214;40;20029;-67
2021/06/25 03:35:38;;;;;;;;;;;18.90;53.90;;;;;;1487329;40;19932;-66
2021/06/25 03:36:59;;;;;;;;;;;18.90;54.00;;;;;;1484793;40;19971;-67
2021/06/25 03:38:20;;;;;;;;;;;18.90;54.00;;;;;;1486332;40;19939;-67
2021/06/25 03:39:41;;;;;;;;;;;18.80;54.00;;;;;;1487033;40;19947;-67
2021/06/25 03:41:02;;;;;;;;;;;18.80;54.00;;;;;;1485436;40;20223;-67
2021/06/25 03:42:22;;;;;;;;;;;18.80;54.00;;;;;;1484580;40;19936;-67
2021/06/25 03:43:43;;;;;;;;;;;18.80;54.00;;;;;;1487077;40;19952;-67
2021/06/25 03:45:05;;;;;;;;;;;18.80;54.10;;;;;;1486146;40;19950;-67
2021/06/25 03:46:25;;;;;;;;;;;18.80;54.10;;;;;;1486336;39;19959;-66
2021/06/25 03:47:46;;;;;;;;;;;18.70;54.10;;;;;;1486524;39;19959;-66
2021/06/25 03:49:07;;;;;;;;;;;18.70;54.10;;;;;;1485209;40;20344;-67
2021/06/25 03:50:28;;;;;;;;;;;18.70;54.20;;;;;;1485323;40;19939;-66
2021/06/25 03:51:49;;;;;;;;;;;18.70;54.20;;;;;;1485547;40;19942;-67
2021/06/25 03:53:10;;;;;;;;;;;18.70;54.20;;;;;;1484233;40;19969;-67
2021/06/25 03:54:31;;;;;;;;;;;18.70;54.30;;;;;;1488187;40;19939;-66
2021/06/25 03:57:31;;;;;;;;;;;18.60;54.20;;;;;;1487637;40;19944;-67
2021/06/25 03:58:52;;;;;;;;;;;18.60;54.20;;;;;;1486793;40;19936;-66
2021/06/25 04:00:14;;;;;;;;;;;18.60;54.20;;;;;;1486409;40;19943;-66
2021/06/25 04:01:35;;;;;;;;;;;18.60;54.20;;;;;;1487679;40;19943;-66
2021/06/25 04:02:56;;;;;;;;;;;18.60;54.40;;;;;;1484791;40;19932;-66
2021/06/25 04:04:16;;;;;;;;;;;18.60;54.30;;;;;;1486896;40;20211;-67
2021/06/25 04:05:37;;;;;;;;;;;18.60;54.30;;;;;;1486838;40;19936;-66
2021/06/25 04:06:58;;;;;;;;;;;18.60;54.30;;;;;;1486302;40;19932;-66
2021/06/25 04:08:19;;;;;;;;;;;18.50;54.30;;;;;;1487040;40;19943;-67
2021/06/25 04:09:39;;;;;;;;;;;18.50;54.30;;;;;;1485820;40;19943;-67
2021/06/25 04:11:01;;;;;;;;;;;18.50;54.30;;;;;;1486468;40;19948;-67
2021/06/25 04:12:22;;;;;;;;;;;18.50;54.30;;;;;;1486205;40;20183;-67
2021/06/25 04:13:43;;;;;;;;;;;18.50;54.30;;;;;;1486968;40;19931;-66
2021/06/25 04:15:05;;;;;;;;;;;18.50;54.30;;;;;;1485872;39;20160;-67
2021/06/25 04:16:26;;;;;;;;;;;18.50;54.30;;;;;;1485730;40;19947;-66
2021/06/25 04:17:47;;;;;;;;;;;18.50;54.40;;;;;;1486783;40;19990;-67
2021/06/25 04:19:08;;;;;;;;;;;18.50;54.40;;;;;;1486855;40;19942;-67
2021/06/25 04:20:28;;;;;;;;;;;18.40;54.40;;;;;;1485129;40;19943;-66
2021/06/25 04:21:49;;;;;;;;;;;18.40;54.40;;;;;;1486475;40;20024;-66
2021/06/25 04:23:10;;;;;;;;;;;18.40;54.50;;;;;;1486527;40;19955;-67
2021/06/25 04:24:31;;;;;;;;;;;18.40;54.80;;;;;;1486423;40;19936;-67
2021/06/25 04:25:52;;;;;;;;;;;18.40;54.60;;;;;;1486798;39;19944;-66
2021/06/25 04:27:13;;;;;;;;;;;18.40;54.60;;;;;;1486513;39;19955;-66
2021/06/25 04:28:35;;;;;;;;;;;18.30;54.50;;;;;;1481359;40;19952;-66
2021/06/25 04:29:55;;;;;;;;;;;18.30;54.60;;;;;;1482945;40;19952;-66
2021/06/25 04:31:16;;;;;;;;;;;18.30;54.70;;;;;;1480820;40;20010;-66
2021/06/25 04:32:37;;;;;;;;;;;18.30;54.70;;;;;;1485156;40;19947;-66
2021/06/25 04:33:58;;;;;;;;;;;18.30;54.70;;;;;;1486620;40;19990;-67
2021/06/25 04:35:19;;;;;;;;;;;18.30;54.80;;;;;;1485114;40;20002;-66
2021/06/25 04:36:40;;;;;;;;;;;18.30;54.80;;;;;;1486138;40;19947;-66
2021/06/25 04:38:03;;;;;;;;;;;18.30;54.80;;;;;;1486008;40;19936;-66
2021/06/25 04:39:24;;;;;;;;;;;18.30;54.80;;;;;;1487285;39;19989;-66
2021/06/25 04:40:45;;;;;;;;;;;18.30;54.90;;;;;;1487037;40;20164;-66
2021/06/25 04:42:06;;;;;;;;;;;18.30;54.90;;;;;;1486206;40;19932;-66
2021/06/25 04:43:27;;;;;;;;;;;18.30;55.10;;;;;;1486243;40;19932;-67
2021/06/25 04:44:47;;;;;;;;;;;18.30;55.10;;;;;;1486479;39;19944;-67
2021/06/25 04:46:08;;;;;;;;;;;18.20;55.10;;;;;;1486992;39;20098;-67
2021/06/25 04:47:29;;;;;;;;;;;18.30;55.20;;;;;;1487511;39;19968;-67
2021/06/25 04:48:50;;;;;;;;;;;18.30;55.30;;;;;;1487671;40;19940;-66
2021/06/25 04:50:11;;;;;;;;;;;18.30;55.40;;;;;;1486291;40;20180;-66
2021/06/25 04:51:32;;;;;;;;;;;18.30;55.40;;;;;;1485886;40;19940;-67
2021/06/25 04:52:53;;;;;;;;;;;18.30;55.50;;;;;;1486898;40;19940;-66
2021/06/25 04:54:14;;;;;;;;;;;18.30;55.40;;;;;;1486922;40;19956;-67
2021/06/25 04:55:41;;;;;;;;;;;18.20;55.40;;;;;;1487279;40;19936;-66
2021/06/25 04:57:02;;;;;;;;;;;18.30;55.50;;;;;;1487029;40;20296;-66
2021/06/25 04:58:27;;;;;;;;;;;18.30;55.70;;;;;;1486943;40;19944;-67
2021/06/25 04:59:47;;;;;;;;;;;18.30;55.70;;;;;;1485994;39;20672;-67
2021/06/25 05:01:08;;;;;;;;;;;18.30;55.70;;;;;;1482581;40;20112;-66
2021/06/25 05:02:29;;;;;;;;;;;18.30;55.80;;;;;;1486385;40;19944;-67
2021/06/25 05:03:50;;;;;;;;;;;18.30;56.20;;;;;;1488413;39;19932;-66
2021/06/25 05:05:11;;;;;;;;;;;18.30;55.90;;;;;;1487117;39;19948;-66
2021/06/25 05:06:32;;;;;;;;;;;18.30;55.90;;;;;;1485710;40;20233;-66
2021/06/25 05:07:52;;;;;;;;;;;18.30;55.90;;;;;;1486655;40;19948;-67
2021/06/25 05:09:14;;;;;;;;;;;18.30;56.00;;;;;;1486817;40;19936;-66
2021/06/25 05:10:34;;;;;;;;;;;18.40;56.30;;;;;;1487503;40;19936;-66
2021/06/25 05:11:55;;;;;;;;;;;18.40;56.10;;;;;;1485711;40;20021;-66
2021/06/25 05:13:17;;;;;;;;;;;18.40;56.10;;;;;;1486202;40;19946;-67
2021/06/25 05:14:38;;;;;;;;;;;18.40;56.10;;;;;;1487492;40;19940;-67
2021/06/25 05:15:59;;;;;;;;;;;18.40;56.10;;;;;;1486532;40;19972;-67
2021/06/25 05:17:20;;;;;;;;;;;18.40;56.30;;;;;;1485642;40;19947;-66
2021/06/25 05:18:41;;;;;;;;;;;18.50;56.30;;;;;;1487187;40;20256;-66
2021/06/25 05:20:05;;;;;;;;;;;18.50;56.90;;;;;;1487036;40;19936;-66
2021/06/25 05:21:26;;;;;;;;;;;18.50;56.60;;;;;;1482813;40;19944;-66
2021/06/25 05:22:47;;;;;;;;;;;18.50;56.50;;;;;;1484792;39;19940;-67
2021/06/25 05:24:07;;;;;;;;;;;18.50;57.00;;;;;;1486644;40;19940;-66
2021/06/25 05:25:28;;;;;;;;;;;18.50;56.60;;;;;;1486940;39;19944;-66
2021/06/25 05:26:49;;;;;;;;;;;18.60;56.60;;;;;;1486128;39;20256;-66
2021/06/25 05:28:10;;;;;;;;;;;18.60;56.50;;;;;;1487017;40;20264;-66
2021/06/25 05:29:31;;;;;;;;;;;18.60;56.60;;;;;;1487359;40;19932;-66
2021/06/25 05:30:52;;;;;;;;;;;18.60;57.30;;;;;;1486854;40;19948;-67
2021/06/25 05:32:12;;;;;;;;;;;18.60;56.80;;;;;;1486400;40;19940;-66
2021/06/25 05:33:33;;;;;;;;;;;18.60;57.00;;;;;;1485983;40;19962;-66
2021/06/25 05:34:54;;;;;;;;;;;18.70;57.00;;;;;;1486636;40;19940;-66
2021/06/25 05:36:15;;;;;;;;;;;18.80;56.90;;;;;;1485802;40;19962;-66
2021/06/25 05:37:36;;;;;;;;;;;18.70;56.80;;;;;;1486308;40;19971;-66
2021/06/25 05:38:56;;;;;;;;;;;18.70;57.00;;;;;;1486770;40;19944;-66
2021/06/25 05:40:17;;;;;;;;;;;18.80;57.00;;;;;;1485168;40;19932;-66
2021/06/25 05:41:38;;;;;;;;;;;18.90;57.00;;;;;;1486315;40;20265;-66
2021/06/25 05:42:59;;;;;;;;;;;18.80;57.10;;;;;;1486081;40;19960;-67
2021/06/25 05:44:19;;;;;;;;;;;18.80;57.00;;;;;;1486707;40;19936;-66
2021/06/25 05:45:40;;;;;;;;;;;18.90;57.10;;;;;;1486609;39;20254;-67
2021/06/25 05:47:02;;;;;;;;;;;18.90;57.40;;;;;;1485115;40;19936;-66
2021/06/25 05:48:23;;;;;;;;;;;18.90;57.20;;;;;;1486081;40;19936;-67
2021/06/25 05:49:43;;;;;;;;;;;18.90;57.60;;;;;;1486219;40;19944;-67
2021/06/25 05:51:06;;;;;;;;;;;18.90;57.90;;;;;;1486153;39;19942;-66
2021/06/25 05:52:27;;;;;;;;;;;18.90;57.20;;;;;;1486464;40;19940;-66
2021/06/25 05:53:47;;;;;;;;;;;19.00;57.30;;;;;;1486020;40;19940;-67
2021/06/25 05:55:09;;;;;;;;;;;19.00;57.50;;;;;;1486360;40;19936;-66
2021/06/25 05:56:29;;;;;;;;;;;19.00;57.60;;;;;;1484900;40;20028;-66
2021/06/25 05:57:51;;;;;;;;;;;19.10;57.50;;;;;;1487205;40;19946;-66
2021/06/25 05:59:11;;;;;;;;;;;19.00;57.30;;;;;;1487087;40;20300;-66
2021/06/25 06:00:32;;;;;;;;;;;19.10;57.40;;;;;;1485618;40;20438;-66
2021/06/25 06:01:53;;;;;;;;;;;19.10;57.70;;;;;;1481785;40;19936;-67
2021/06/25 06:03:14;;;;;;;;;;;19.20;57.50;;;;;;1483013;40;19948;-67
2021/06/25 06:04:34;;;;;;;;;;;19.20;57.60;;;;;;1488183;39;19997;-67
2021/06/25 06:05:55;;;;;;;;;;;19.20;57.50;;;;;;1486736;40;19936;-66
2021/06/25 06:07:17;;;;;;;;;;;19.20;57.60;;;;;;1488270;40;19932;-66
2021/06/25 06:08:38;;;;;;;;;;;19.20;57.60;;;;;;1487477;40;19936;-66
2021/06/25 06:09:58;;;;;;;;;;;19.30;57.50;;;;;;1486398;39;19940;-66
2021/06/25 06:11:19;;;;;;;;;;;19.30;57.30;;;;;;1485857;39;20164;-66
2021/06/25 06:12:40;;;;;;;;;;;19.30;57.50;;;;;;1482254;40;20288;-66
2021/06/25 06:14:01;;;;;;;;;;;19.40;57.40;;;;;;1484291;40;20025;-66
2021/06/25 06:15:22;;;;;;;;;;;19.40;57.50;;;;;;1487123;40;19943;-67
2021/06/25 06:16:42;;;;;;;;;;;19.40;57.30;;;;;;1486344;40;19944;-67
2021/06/25 06:18:05;;;;;;;;;;;19.40;57.40;;;;;;1485969;40;20302;-66
2021/06/25 06:19:37;;;;;;;;;;;19.50;57.30;;;;;;1483291;40;19948;-66
2021/06/25 06:20:57;;;;;;;;;;;19.50;57.40;;;;;;1486378;40;20335;-67
2021/06/25 06:32:44;;;;;;;;;;;19.70;57.00;;;;;;1482647;40;19968;-66
2021/06/25 06:34:07;;;;;;;;;;;19.70;56.90;;;;;;1486909;40;19944;-66
2021/06/25 06:35:28;;;;;;;;;;;19.80;56.90;;;;;;1485854;40;20180;-66
2021/06/25 06:36:49;;;;;;;;;;;19.80;56.70;;;;;;1486338;40;19950;-66
2021/06/25 06:38:10;;;;;;;;;;;19.80;56.60;;;;;;1485028;40;19940;-67
2021/06/25 06:39:31;;;;;;;;;;;19.90;56.60;;;;;;1484864;40;19943;-67
2021/06/25 06:40:52;;;;;;;;;;;19.90;56.40;;;;;;1486789;40;19939;-67
2021/06/25 06:42:13;;;;;;;;;;;20.00;56.20;;;;;;1485340;40;19932;-66
2021/06/25 06:43:37;;;;;;;;;;;20.00;56.20;;;;;;1485700;39;19944;-66
2021/06/25 06:44:58;;;;;;;;;;;20.10;56.10;;;;;;1486594;39;19944;-66
2021/06/25 06:46:19;;;;;;;;;;;20.10;56.10;;;;;;1485868;40;19943;-66
2021/06/25 06:47:40;;;;;;;;;;;20.10;56.00;;;;;;1487706;40;19943;-66
2021/06/25 06:49:01;;;;;;;;;;;20.10;55.90;;;;;;1487077;40;19951;-66
2021/06/25 06:50:22;;;;;;;;;;;20.20;55.90;;;;;;1482729;40;19936;-66
2021/06/25 06:51:43;;;;;;;;;;;20.20;55.80;;;;;;1486321;39;19936;-67
2021/06/25 06:53:04;;;;;;;;;;;20.20;55.80;;;;;;1486243;40;19939;-66
2021/06/25 06:54:24;;;;;;;;;;;20.20;55.70;;;;;;1487564;40;19942;-66
2021/06/25 06:55:45;;;;;;;;;;;20.20;55.70;;;;;;1485377;40;20430;-66
2021/06/25 06:57:06;;;;;;;;;;;20.30;55.70;;;;;;1487089;40;19940;-66
2021/06/25 06:58:27;;;;;;;;;;;20.30;55.60;;;;;;1486224;39;19939;-66
2021/06/25 06:59:48;;;;;;;;;;;20.30;55.30;;;;;;1486945;40;20257;-67
2021/06/25 07:01:09;;;;;;;;;;;20.30;55.70;;;;;;1485380;40;20237;-66
2021/06/25 07:02:30;;;;;;;;;;;20.30;55.40;;;;;;1482948;40;20189;-66
2021/06/25 07:03:51;;;;;;;;;;;20.30;55.40;;;;;;1485529;40;19939;-66
2021/06/25 07:05:12;;;;;;;;;;;20.30;55.50;;;;;;1484732;40;19959;-66
2021/06/25 07:06:33;;;;;;;;;;;20.40;55.40;;;;;;1485939;40;19936;-66
2021/06/25 07:07:54;;;;;;;;;;;20.30;55.30;;;;;;1486239;39;19947;-67
2021/06/25 07:09:15;;;;;;;;;;;20.40;55.40;;;;;;1485721;39;20499;-66
2021/06/25 07:10:36;;;;;;;;;;;20.40;55.30;;;;;;1485105;40;19936;-66
2021/06/25 07:11:56;;;;;;;;;;;20.40;55.20;;;;;;1485807;40;19940;-66
2021/06/25 07:13:17;;;;;;;;;;;20.40;54.90;;;;;;1486291;40;20261;-66
2021/06/25 07:14:38;;;;;;;;;;;20.50;55.00;;;;;;1487200;40;20514;-66
2021/06/25 07:15:59;;;;;;;;;;;20.60;55.00;;;;;;1486061;40;19948;-66
2021/06/25 07:17:20;;;;;;;;;;;20.50;55.00;;;;;;1483980;40;19972;-66
2021/06/25 07:18:41;;;;;;;;;;;20.50;55.00;;;;;;1484475;40;20263;-66
2021/06/25 07:20:05;;;;;;;;;;;20.50;54.70;;;;;;1486519;40;19944;-67
2021/06/25 07:21:26;;;;;;;;;;;20.60;54.60;;;;;;1486305;40;19943;-66
2021/06/25 07:22:47;;;;;;;;;;;20.60;54.70;;;;;;1486239;40;19932;-67
2021/06/25 07:24:07;;;;;;;;;;;20.60;54.80;;;;;;1481940;40;19944;-66
2021/06/25 07:25:29;;;;;;;;;;;20.80;54.90;;;;;;1483791;40;20250;-66
2021/06/25 07:26:49;;;;;;;;;;;20.70;54.80;;;;;;1487008;40;19932;-66
2021/06/25 07:28:10;;;;;;;;;;;20.70;54.60;;;;;;1485628;40;19952;-66
2021/06/25 07:29:31;;;;;;;;;;;20.60;54.00;;;;;;1485321;40;19939;-66
2021/06/25 07:30:52;;;;;;;;;;;20.80;54.00;;;;;;1486539;40;20239;-66
2021/06/25 07:32:13;;;;;;;;;;;20.80;53.90;;;;;;1487813;40;19943;-66
2021/06/25 07:33:34;;;;;;;;;;;20.80;53.90;;;;;;1486256;40;19959;-66
2021/06/25 07:34:55;;;;;;;;;;;20.90;52.80;;;;;;1486110;40;19944;-66
2021/06/25 07:36:16;;;;;;;;;;;20.90;53.70;;;;;;1487412;40;19936;-66
2021/06/25 07:37:37;;;;;;;;;;;20.90;53.10;;;;;;1487230;40;19940;-66
2021/06/25 07:38:58;;;;;;;;;;;21.00;53.90;;;;;;1486647;40;19940;-66
2021/06/25 07:40:20;;;;;;;;;;;21.00;52.60;;;;;;1486365;40;20437;-66
2021/06/25 07:41:40;;;;;;;;;;;21.00;53.30;;;;;;1485408;39;19936;-66
2021/06/25 07:43:01;;;;;;;;;;;21.10;53.80;;;;;;1485937;39;19935;-67
2021/06/25 07:44:22;;;;;;;;;;;21.10;54.00;;;;;;1485100;40;19936;-66
2021/06/25 07:45:43;;;;;;;;;;;21.20;53.70;;;;;;1484990;40;19982;-66
2021/06/25 07:47:04;;;;;;;;;;;21.20;53.70;;;;;;1485503;40;20067;-66
2021/06/25 07:48:24;;;;;;;;;;;21.20;53.60;;;;;;1485755;40;20245;-66
2021/06/25 07:49:45;;;;;;;;;;;21.30;52.90;;;;;;1485590;40;20013;-66
2021/06/25 07:51:06;;;;;;;;;;;21.30;53.40;;;;;;1485197;40;19948;-66
2021/06/25 07:52:27;;;;;;;;;;;21.40;53.80;;;;;;1486012;40;19987;-67
2021/06/25 07:53:48;;;;;;;;;;;21.40;53.80;;;;;;1487373;40;19966;-66
2021/06/25 07:55:10;;;;;;;;;;;21.50;52.80;;;;;;1484104;40;20033;-66
2021/06/25 07:56:31;;;;;;;;;;;21.50;51.00;;;;;;1485574;40;20296;-66
2021/06/25 07:57:52;;;;;;;;;;;21.60;52.50;;;;;;1486362;39;20015;-66
2021/06/25 07:59:12;;;;;;;;;;;21.60;52.50;;;;;;1486972;40;19940;-66
2021/06/25 08:00:33;;;;;;;;;;;21.70;52.40;;;;;;1485379;39;20173;-66
2021/06/25 08:01:54;;;;;;;;;;;21.80;51.20;;;;;;1487269;39;20198;-66
2021/06/25 08:03:15;;;;;;;;;;;21.80;51.70;;;;;;1486349;40;19942;-66